Time;durP1;ratioP1;P1;durP2;ratioP2;P2;SDS_P1;SDS_P2;PMS_P1;PMS_P2;Temp;Humidity;BMP_temperature;BMP_pressure;BME280_temperature;BME280_humidity;BME280_pressure;Samples;Min_cycle;Max_cycle;Signal;HPM_P1;HPM_P2
2023/01/27 00:01:38;;;;;;;12.80;2.20;;;;;;;-143.48;81.63;118439.88;5095455;28;20020;-65
2023/01/27 00:04:03;;;;;;;11.40;2.25;;;;;;;-143.48;81.89;118439.88;5095712;28;20028;-66
2023/01/27 00:06:29;;;;;;;13.15;2.33;;;;;;;-143.48;82.08;118439.88;5096753;28;20126;-66
2023/01/27 00:08:54;;;;;;;8.98;2.25;;;;;;;-143.48;82.04;118439.88;5096284;28;20039;-66
2023/01/27 00:14:03;;;;;;;10.77;1.90;;;;;;;-143.48;81.73;118439.88;5097607;28;20035;-66
2023/01/27 00:16:28;;;;;;;12.93;2.00;;;;;;;-143.48;81.37;118439.88;5103792;28;20020;-66
2023/01/27 00:18:53;;;;;;;14.65;2.03;;;;;;;-143.48;81.89;118439.88;5087891;28;20096;-65
2023/01/27 00:26:46;;;;;;;11.35;2.35;;;;;;;-143.48;82.11;118439.88;5107009;28;20047;-66
2023/01/27 00:29:12;;;;;;;12.32;2.13;;;;;;;-143.48;82.74;118439.88;5087585;28;20032;-66
2023/01/27 00:34:21;;;;;;;5.13;2.00;;;;;;;-143.48;82.41;118439.88;5104972;28;20051;-66
2023/01/27 00:36:46;;;;;;;7.93;2.28;;;;;;;-143.48;82.41;118439.88;5110092;28;20028;-67
2023/01/27 00:39:12;;;;;;;11.43;2.22;;;;;;;-143.48;82.00;118439.88;5093557;28;20051;-67
2023/01/27 00:41:39;;;;;;;8.80;1.73;;;;;;;-143.48;82.21;118439.88;5111551;28;20042;-68
2023/01/27 00:44:05;;;;;;;11.60;2.58;;;;;;;-143.48;81.68;118439.88;5111655;28;20023;-68
2023/01/27 00:46:30;;;;;;;14.48;2.40;;;;;;;-143.48;82.23;118439.88;5094032;28;20032;-67
2023/01/27 00:48:56;;;;;;;11.95;2.50;;;;;;;-143.48;81.86;118439.88;5111624;28;20063;-68
2023/01/27 00:51:22;;;;;;;11.73;2.70;;;;;;;-143.48;81.38;118439.88;5108492;28;20158;-67
2023/01/27 00:53:48;;;;;;;6.47;2.00;;;;;;;-143.48;80.94;118439.88;5098401;28;20032;-66
2023/01/27 00:56:13;;;;;;;6.93;2.55;;;;;;;-143.48;82.29;118439.88;5097856;28;20031;-66
2023/01/27 00:58:38;;;;;;;10.85;2.60;;;;;;;-143.48;81.81;118439.88;5080106;28;20031;-66
2023/01/27 01:01:06;;;;;;;10.23;2.53;;;;;;;-143.48;82.20;118439.88;5078470;28;20020;-67
2023/01/27 01:03:34;;;;;;;8.60;2.60;;;;;;;-143.48;81.81;118439.88;5097166;28;20024;-66
2023/01/27 01:06:06;;;;;;;9.68;2.42;;;;;;;-143.48;81.68;118439.88;5096999;28;20111;-65
2023/01/27 01:08:33;;;;;;;10.45;2.22;;;;;;;-143.48;81.79;118439.88;5095623;28;20031;-65
2023/01/27 01:10:58;;;;;;;8.55;2.33;;;;;;;-143.48;82.19;118439.88;5094809;28;20031;-65
2023/01/27 01:13:26;;;;;;;9.10;2.40;;;;;;;-143.48;82.09;118439.88;5095743;28;20028;-66
2023/01/27 01:15:52;;;;;;;10.43;3.28;;;;;;;-143.48;82.41;118439.88;5076281;28;20050;-66
2023/01/27 01:18:17;;;;;;;10.18;3.28;;;;;;;-143.48;82.28;118439.88;5094001;28;20045;-65
2023/01/27 01:20:44;;;;;;;9.77;3.60;;;;;;;-143.48;82.17;118439.88;5094083;28;20027;-66
2023/01/27 01:23:09;;;;;;;14.73;3.70;;;;;;;-143.48;82.23;118439.88;5094650;28;20024;-66
2023/01/27 01:25:35;;;;;;;13.93;3.92;;;;;;;-143.48;81.50;118439.88;5075499;28;20031;-66
2023/01/27 01:28:03;;;;;;;8.10;3.72;;;;;;;-143.48;82.52;118439.88;5094564;28;20158;-66
2023/01/27 01:30:29;;;;;;;12.10;3.70;;;;;;;-143.48;81.87;118439.88;5097413;28;20107;-66
2023/01/27 01:32:55;;;;;;;14.65;3.83;;;;;;;-143.48;81.86;118439.88;5078134;28;20034;-66
2023/01/27 01:35:21;;;;;;;8.60;4.00;;;;;;;-143.48;81.94;118439.88;5096180;28;20394;-67
2023/01/27 01:37:47;;;;;;;15.93;5.05;;;;;;;-143.48;82.08;118439.88;5078683;28;20024;-67
2023/01/27 01:40:12;;;;;;;14.00;3.95;;;;;;;-143.48;81.65;118439.88;5096150;28;20055;-66
2023/01/27 01:42:54;;;;;;;11.57;3.47;;;;;;;-143.48;81.76;118439.88;5096071;28;20032;-67
2023/01/27 01:45:35;;;;;;;7.72;3.33;;;;;;;-143.48;82.75;118439.88;5095763;28;20028;-66
2023/01/27 01:48:19;;;;;;;12.25;3.70;;;;;;;-143.48;82.04;118439.88;5095844;28;20016;-67
2023/01/27 01:50:51;;;;;;;;;;;;;;;-143.48;81.68;118439.88;5079293;28;20119;-66
2023/01/27 01:53:18;;;;;;;12.20;3.88;;;;;;;-143.48;80.52;118439.88;5097032;28;19973;-66
2023/01/27 01:55:45;;;;;;;10.95;3.65;;;;;;;-143.48;80.33;118439.88;5097624;28;20107;-65
2023/01/27 01:58:11;;;;;;;12.07;3.78;;;;;;;-143.48;80.09;118439.88;5097112;28;20483;-65
2023/01/27 02:00:36;;;;;;;13.57;4.38;;;;;;;-143.48;80.49;118439.88;5078669;28;20027;-65
2023/01/27 02:03:02;;;;;;;13.02;4.22;;;;;;;-143.48;80.19;118439.88;5096889;28;20430;-65
2023/01/27 02:05:39;;;;;;;16.52;4.40;;;;;;;-143.48;80.46;118439.88;5078927;28;20078;-65
2023/01/27 02:08:14;;;;;;;13.40;4.50;;;;;;;-143.48;80.22;118439.88;5096898;28;20436;-65
2023/01/27 02:10:40;;;;;;;12.18;4.10;;;;;;;-143.48;80.85;118439.88;5097057;28;20024;-66
2023/01/27 02:13:05;;;;;;;13.00;4.60;;;;;;;-143.48;80.44;118439.88;5096880;28;20426;-65
2023/01/27 02:15:31;;;;;;;12.73;4.47;;;;;;;-143.48;80.29;118439.88;5096773;28;20031;-66
2023/01/27 02:17:59;;;;;;;11.38;4.47;;;;;;;-143.48;81.18;118439.88;5096481;28;20031;-65
2023/01/27 02:20:43;;;;;;;10.77;4.78;;;;;;;-143.48;81.42;118439.88;5096696;28;20480;-65
2023/01/27 02:23:27;;;;;;;7.38;4.53;;;;;;;-143.48;81.53;118439.88;5078463;28;20024;-65
2023/01/27 02:26:02;;;;;;;13.20;5.13;;;;;;;-143.48;82.18;118439.88;5097044;28;20474;-65
2023/01/27 02:28:30;;;;;;;10.27;4.75;;;;;;;-143.48;81.55;118439.88;5096658;28;20478;-65
2023/01/27 02:30:56;;;;;;;15.55;5.32;;;;;;;-143.48;81.50;118439.88;5078153;28;20024;-65
2023/01/27 02:33:22;;;;;;;12.18;5.32;;;;;;;-143.48;81.36;118439.88;5078330;28;20376;-65
2023/01/27 02:36:04;;;;;;;13.52;4.65;;;;;;;-143.48;81.42;118439.88;5096418;28;20099;-65
2023/01/27 02:38:37;;;;;;;13.85;5.22;;;;;;;-143.48;81.18;118439.88;5078159;28;20032;-65
2023/01/27 02:41:18;;;;;;;13.38;4.97;;;;;;;-143.48;83.75;118439.88;5095379;28;20085;-65
2023/01/27 02:43:43;;;;;;;16.33;6.65;;;;;;;-143.48;84.32;118439.88;5078245;28;20481;-65
2023/01/27 02:46:08;;;;;;;11.40;5.95;;;;;;;-143.48;84.65;118439.88;5096081;28;20020;-65
2023/01/27 02:48:34;;;;;;;13.32;6.47;;;;;;;-143.48;85.46;118439.88;5077684;28;20031;-65
2023/01/27 02:50:59;;;;;;;17.83;6.65;;;;;;;-143.48;85.06;118439.88;5096106;28;20026;-65
2023/01/27 02:53:25;;;;;;;16.20;7.13;;;;;;;-143.48;84.69;118439.88;5096038;28;20447;-65
2023/01/27 02:55:50;;;;;;;15.85;7.35;;;;;;;-143.48;85.33;118439.88;5095933;28;20456;-65
2023/01/27 02:58:15;;;;;;;19.88;7.20;;;;;;;-143.48;85.09;118439.88;5078234;28;20024;-65
2023/01/27 03:00:42;;;;;;;14.45;7.47;;;;;;;-143.48;85.03;118439.88;5095816;28;20016;-65
2023/01/27 03:03:07;;;;;;;15.25;7.68;;;;;;;-143.48;84.46;118439.88;5077307;28;20035;-65
2023/01/27 03:05:33;;;;;;;17.98;8.45;;;;;;;-143.48;83.75;118439.88;5077664;28;20084;-65
2023/01/27 03:07:58;;;;;;;17.92;8.00;;;;;;;-143.48;82.83;118439.88;5095665;28;20028;-65
2023/01/27 03:10:24;;;;;;;13.70;7.93;;;;;;;-143.48;82.67;118439.88;5095529;28;20038;-65
2023/01/27 03:12:49;;;;;;;17.20;8.27;;;;;;;-143.48;82.63;118439.88;5077329;28;20379;-65
2023/01/27 03:18:12;;;;;;;17.63;7.80;;;;;;;-143.48;82.10;118439.88;5095496;28;20529;-65
2023/01/27 03:20:48;;;;;;;18.52;8.05;;;;;;;-143.48;82.80;118439.88;5095526;28;20024;-65
2023/01/27 03:23:15;;;;;;;15.23;7.70;;;;;;;-143.48;82.34;118439.88;5095362;28;20413;-65
2023/01/27 03:25:46;;;;;;;14.13;8.43;;;;;;;-143.48;83.77;118439.88;5095147;28;20027;-66
2023/01/27 03:28:12;;;;;;;18.23;7.95;;;;;;;-143.48;82.17;118439.88;5095523;28;20020;-66
2023/01/27 03:30:39;;;;;;;16.08;7.57;;;;;;;-143.48;82.80;118439.88;5094940;28;20111;-66
2023/01/27 03:33:06;;;;;;;16.80;6.88;;;;;;;-143.48;83.18;118439.88;5095595;28;20023;-65
2023/01/27 03:35:37;;;;;;;11.05;6.70;;;;;;;-143.48;82.73;118439.88;5095289;28;20020;-66
2023/01/27 03:46:23;;;;;;;9.95;6.00;;;;;;;-143.48;81.55;118439.88;5094806;28;20035;-66
2023/01/27 03:48:51;;;;;;;13.15;5.60;;;;;;;-143.48;81.55;118439.88;5096061;28;20409;-65
2023/01/27 03:51:18;;;;;;;9.45;5.30;;;;;;;-143.48;81.13;118439.88;5094460;28;20020;-65
2023/01/27 03:53:44;;;;;;;8.02;4.80;;;;;;;-143.48;80.87;118439.88;5094701;28;20022;-66
2023/01/27 03:56:09;;;;;;;9.10;4.47;;;;;;;-143.48;80.14;118439.88;5094565;28;20386;-66
2023/01/27 03:58:36;;;;;;;7.10;4.30;;;;;;;-143.48;79.47;118439.88;5094539;28;20026;-66
2023/01/27 04:01:15;;;;;;;9.27;4.20;;;;;;;-143.48;79.44;118439.88;5094807;28;20020;-65
2023/01/27 04:09:35;;;;;;;6.55;4.05;;;;;;;-143.48;78.31;118439.88;5095092;28;20043;-66
2023/01/27 04:12:03;;;;;;;7.40;4.00;;;;;;;-143.48;79.26;118439.88;5094327;28;20012;-67
2023/01/27 04:14:41;;;;;;;5.57;3.42;;;;;;;-143.48;78.99;118439.88;5094609;28;20049;-66
2023/01/27 04:17:11;;;;;;;5.53;3.70;;;;;;;-143.48;78.98;118439.88;5094426;28;20027;-66
2023/01/27 04:19:37;;;;;;;6.65;3.50;;;;;;;-143.48;78.60;118439.88;5076533;28;20576;-67
2023/01/27 04:22:03;;;;;;;6.30;3.33;;;;;;;-143.48;77.35;118439.88;5076293;28;20031;-65
2023/01/27 04:24:28;;;;;;;6.10;3.63;;;;;;;-143.48;77.49;118439.88;5076506;28;20031;-64
2023/01/27 04:27:02;;;;;;;5.72;3.30;;;;;;;-143.48;77.74;118439.88;5076524;28;20047;-65
2023/01/27 04:29:30;;;;;;;7.15;3.17;;;;;;;-143.48;77.74;118439.88;5076147;28;20066;-66
2023/01/27 04:31:57;;;;;;;4.95;3.13;;;;;;;-143.48;77.01;118439.88;5094270;28;20035;-65
2023/01/27 04:34:23;;;;;;;5.70;3.17;;;;;;;-143.48;76.80;118439.88;5076212;28;20160;-66
2023/01/27 04:36:49;;;;;;;4.88;2.85;;;;;;;-143.48;76.75;118439.88;5077036;28;20039;-67
2023/01/27 04:39:15;;;;;;;4.22;3.00;;;;;;;-143.48;76.14;118439.88;5075891;28;20056;-67
2023/01/27 04:41:41;;;;;;;4.43;2.85;;;;;;;-143.48;76.30;118439.88;5094043;28;20023;-64
2023/01/27 04:44:07;;;;;;;3.65;2.95;;;;;;;-143.48;76.09;118439.88;5075814;28;20030;-65
2023/01/27 04:46:33;;;;;;;5.82;3.22;;;;;;;-143.48;76.38;118439.88;5075739;28;20054;-65
2023/01/27 04:48:59;;;;;;;5.50;2.88;;;;;;;-143.48;75.79;118439.88;5075844;28;20024;-65
2023/01/27 04:51:25;;;;;;;5.38;3.15;;;;;;;-143.48;75.93;118439.88;5093922;28;20051;-65
2023/01/27 04:53:50;;;;;;;5.20;3.13;;;;;;;-143.48;75.78;118439.88;5076146;28;20031;-65
2023/01/27 04:56:28;;;;;;;4.60;3.15;;;;;;;-143.48;76.18;118439.88;5093748;28;20470;-66
2023/01/27 04:58:56;;;;;;;6.90;3.25;;;;;;;-143.48;75.52;118439.88;5093771;28;20024;-66
2023/01/27 05:01:22;;;;;;;4.78;3.28;;;;;;;-143.48;74.72;118439.88;5093646;28;20077;-66
2023/01/27 05:03:47;;;;;;;5.13;3.10;;;;;;;-143.48;74.31;118439.88;5096386;28;20405;-66
2023/01/27 05:06:13;;;;;;;4.85;3.22;;;;;;;-143.48;74.62;118439.88;5097931;28;20047;-66
2023/01/27 05:08:39;;;;;;;6.88;2.97;;;;;;;-143.48;74.48;118439.88;5097789;28;20398;-65
2023/01/27 05:11:04;;;;;;;4.78;3.30;;;;;;;-143.48;74.71;118439.88;5082004;28;20049;-65
2023/01/27 05:13:29;;;;;;;5.72;3.30;;;;;;;-143.48;75.01;118439.88;5079992;28;20027;-66
2023/01/27 05:16:20;;;;;;;4.50;3.13;;;;;;;-143.48;75.01;118439.88;5079613;28;20077;-65
2023/01/27 05:18:47;;;;;;;5.20;3.22;;;;;;;-143.48;73.56;118439.88;5087675;28;20047;-66
2023/01/27 05:21:23;;;;;;;5.80;3.65;;;;;;;-143.48;74.82;118439.88;5079341;28;20051;-66
2023/01/27 05:23:49;;;;;;;5.00;3.25;;;;;;;-143.48;73.88;118439.88;5097322;28;20077;-65
2023/01/27 05:26:18;;;;;;;4.82;3.20;;;;;;;-143.48;74.04;118439.88;5080122;28;20032;-66
2023/01/27 05:28:45;;;;;;;6.50;3.42;;;;;;;-143.48;74.17;118439.88;5078866;28;20035;-66
2023/01/27 05:31:14;;;;;;;5.30;3.20;;;;;;;-143.48;73.88;118439.88;5097140;28;20416;-66
2023/01/27 05:33:41;;;;;;;4.38;2.90;;;;;;;-143.48;73.44;118439.88;5110864;28;20024;-67
2023/01/27 05:36:09;;;;;;;4.88;3.03;;;;;;;-143.48;73.12;118439.88;5113294;28;20027;-66
2023/01/27 05:38:35;;;;;;;3.85;2.75;;;;;;;-143.48;73.10;118439.88;5077440;28;20020;-67
2023/01/27 05:41:04;;;;;;;5.85;2.92;;;;;;;-143.48;72.83;118439.88;5090249;28;20042;-66
2023/01/27 05:43:31;;;;;;;4.80;2.70;;;;;;;-143.48;73.19;118439.88;5079536;28;20352;-67
2023/01/27 05:46:11;;;;;;;4.80;2.95;;;;;;;-143.48;73.30;118439.88;5079087;28;20489;-66
2023/01/27 05:48:40;;;;;;;5.97;2.90;;;;;;;-143.48;72.64;118439.88;5078834;28;20024;-66
2023/01/27 05:51:06;;;;;;;5.43;3.08;;;;;;;-143.48;72.69;118439.88;5097000;28;20020;-66
2023/01/27 05:53:33;;;;;;;7.00;2.83;;;;;;;-143.48;72.40;118439.88;5096754;28;20479;-66
2023/01/27 05:55:59;;;;;;;4.05;2.50;;;;;;;-143.48;72.32;118439.88;5100303;28;20103;-65
2023/01/27 05:58:25;;;;;;;5.32;2.78;;;;;;;-143.48;71.90;118439.88;5079103;28;20119;-65
2023/01/27 06:00:51;;;;;;;3.40;2.50;;;;;;;-143.48;70.55;118439.88;5103757;28;20084;-66
2023/01/27 06:03:17;;;;;;;5.88;2.50;;;;;;;-143.48;70.10;118439.88;5079338;28;20103;-65
2023/01/27 06:06:12;;;;;;;3.97;2.40;;;;;;;-143.48;70.25;118439.88;5080049;28;20056;-66
2023/01/27 06:08:38;;;;;;;4.43;2.33;;;;;;;-143.48;69.95;118439.88;5087991;28;20043;-65
2023/01/27 06:11:03;;;;;;;4.30;2.17;;;;;;;-143.48;69.44;118439.88;5080592;28;20071;-65
2023/01/27 06:13:34;;;;;;;4.22;2.28;;;;;;;-143.48;69.09;118439.88;5097030;28;20064;-65
2023/01/27 06:16:01;;;;;;;3.67;2.40;;;;;;;-143.48;69.40;118439.88;5097150;28;20024;-65
2023/01/27 06:18:26;;;;;;;7.32;2.63;;;;;;;-143.48;69.33;118439.88;5095245;28;20032;-66
2023/01/27 06:20:52;;;;;;;6.95;2.40;;;;;;;-143.48;69.91;118439.88;5077975;28;20020;-65
2023/01/27 06:23:17;;;;;;;8.00;2.50;;;;;;;-143.48;70.09;118439.88;5096190;28;20042;-66
2023/01/27 06:25:47;;;;;;;6.63;2.35;;;;;;;-143.48;70.24;118439.88;5095281;28;20039;-66
2023/01/27 06:28:14;;;;;;;3.55;2.20;;;;;;;-143.48;70.09;118439.88;5076941;28;20446;-66
2023/01/27 06:30:39;;;;;;;4.43;2.40;;;;;;;-143.48;70.94;118439.88;5095414;28;20158;-67
2023/01/27 06:33:06;;;;;;;8.95;2.38;;;;;;;-143.48;70.79;118439.88;5095841;28;20090;-66
2023/01/27 06:35:33;;;;;;;3.25;2.05;;;;;;;-143.48;69.90;118439.88;5095311;28;20049;-67
2023/01/27 06:38:00;;;;;;;6.47;2.20;;;;;;;-143.48;69.83;118439.88;5094857;28;20028;-66
2023/01/27 06:40:26;;;;;;;4.93;2.53;;;;;;;-143.48;70.02;118439.88;5095098;28;20052;-66
2023/01/27 06:42:51;;;;;;;9.23;2.50;;;;;;;-143.48;69.57;118439.88;5095575;28;20366;-66
2023/01/27 06:45:17;;;;;;;3.97;2.28;;;;;;;-143.48;68.87;118439.88;5096276;28;20031;-67
2023/01/27 06:47:42;;;;;;;3.55;2.20;;;;;;;-143.48;68.75;118439.88;5077839;28;20039;-65
2023/01/27 06:50:09;;;;;;;3.60;2.42;;;;;;;-143.48;68.66;118439.88;5096035;28;20051;-65
2023/01/27 06:52:34;;;;;;;2.67;1.88;;;;;;;-143.48;68.75;118439.88;5078668;28;20064;-67
2023/01/27 06:55:00;;;;;;;6.15;2.50;;;;;;;-143.48;68.42;118439.88;5100521;28;20051;-65
2023/01/27 06:57:25;;;;;;;6.90;2.40;;;;;;;-143.48;68.29;118439.88;5077528;28;20020;-65
2023/01/27 06:59:50;;;;;;;2.97;2.05;;;;;;;-143.48;68.42;118439.88;5096055;28;20111;-65
2023/01/27 07:02:16;;;;;;;3.53;2.33;;;;;;;-143.48;68.11;118439.88;5077575;28;20355;-65
2023/01/27 07:04:41;;;;;;;4.88;2.35;;;;;;;-143.48;68.35;118439.88;5095849;28;20028;-66
2023/01/27 07:07:06;;;;;;;4.53;2.58;;;;;;;-143.48;68.56;118439.88;5096435;28;20073;-65
2023/01/27 07:09:32;;;;;;;4.97;2.65;;;;;;;-143.48;68.17;118439.88;5095771;28;20016;-65
2023/01/27 07:11:57;;;;;;;4.63;2.35;;;;;;;-143.48;69.44;118439.88;5095608;28;20028;-65
2023/01/27 07:14:23;;;;;;;3.75;2.08;;;;;;;-143.48;69.16;118439.88;5095554;28;20475;-65
2023/01/27 07:16:48;;;;;;;3.63;2.30;;;;;;;-143.48;70.20;118439.88;5086712;28;20051;-67
2023/01/27 07:19:15;;;;;;;5.13;2.90;;;;;;;-143.48;70.36;118439.88;5085285;28;20028;-65
2023/01/27 07:21:40;;;;;;;6.55;2.63;;;;;;;-143.48;69.52;118439.88;5095522;28;20051;-65
2023/01/27 07:24:06;;;;;;;3.63;2.10;;;;;;;-143.48;70.13;118439.88;5077467;28;20020;-66
2023/01/27 07:26:31;;;;;;;4.22;2.47;;;;;;;-143.48;70.23;118439.88;5076799;28;20153;-66
2023/01/27 07:28:56;;;;;;;5.00;2.50;;;;;;;-143.48;70.94;118439.88;5077199;28;20057;-65
2023/01/27 07:31:22;;;;;;;10.82;2.70;;;;;;;-143.48;70.36;118439.88;5082738;28;20020;-67
2023/01/27 07:33:47;;;;;;;6.25;2.13;;;;;;;-143.48;69.98;118439.88;5094993;28;20245;-67
2023/01/27 07:36:13;;;;;;;3.42;2.28;;;;;;;-143.48;70.23;118439.88;5095833;28;20028;-66
2023/01/27 07:38:38;;;;;;;3.60;2.05;;;;;;;-143.48;69.99;118439.88;5095462;28;20038;-67
2023/01/27 07:41:05;;;;;;;5.35;2.33;;;;;;;-143.48;69.05;118439.88;5107192;28;20024;-66
2023/01/27 07:43:31;;;;;;;4.85;2.50;;;;;;;-143.48;69.29;118439.88;5098226;28;20024;-66
2023/01/27 07:45:56;;;;;;;6.65;2.50;;;;;;;-143.48;69.28;118439.88;5078456;28;20034;-65
2023/01/27 07:48:22;;;;;;;13.90;2.90;;;;;;;-143.48;69.16;118439.88;5079948;28;20471;-65
2023/01/27 07:50:48;;;;;;;6.25;3.20;;;;;;;-143.48;68.30;118439.88;5095295;28;20066;-65
2023/01/27 07:53:13;;;;;;;6.72;3.00;;;;;;;-143.48;69.20;118439.88;5097230;28;20103;-65
2023/01/27 07:55:39;;;;;;;5.78;2.40;;;;;;;-143.48;68.45;118439.88;5096530;28;20028;-66
2023/01/27 07:58:04;;;;;;;5.32;2.60;;;;;;;-143.48;69.35;118439.88;5097569;28;20027;-65
2023/01/27 08:00:31;;;;;;;5.43;2.35;;;;;;;-143.48;69.25;118439.88;5097469;28;20482;-65
2023/01/27 08:02:57;;;;;;;4.15;2.50;;;;;;;-143.48;68.73;118439.88;5099602;28;20028;-66
2023/01/27 08:05:24;;;;;;;5.68;2.30;;;;;;;-143.48;69.04;118439.88;5096389;28;20398;-65
2023/01/27 08:07:50;;;;;;;6.43;2.50;;;;;;;-143.48;69.59;118439.88;5095062;28;20020;-65
2023/01/27 08:10:17;;;;;;;4.00;2.20;;;;;;;-143.48;68.97;118439.88;5094737;28;20430;-65
2023/01/27 08:12:43;;;;;;;5.18;2.08;;;;;;;-143.48;68.44;118439.88;5076823;28;20044;-65
2023/01/27 08:15:09;;;;;;;3.47;2.00;;;;;;;-143.48;68.77;118439.88;5096024;28;20028;-64
2023/01/27 08:17:34;;;;;;;5.03;2.30;;;;;;;-143.48;68.53;118439.88;5095519;28;20028;-64
2023/01/27 08:20:00;;;;;;;3.92;2.20;;;;;;;-143.48;67.92;118439.88;5076875;28;20031;-64
2023/01/27 08:22:27;;;;;;;5.65;2.33;;;;;;;-143.48;67.86;118439.88;5096175;28;20027;-63
2023/01/27 08:24:52;;;;;;;5.57;2.25;;;;;;;-143.48;67.97;118439.88;5076376;28;20024;-65
2023/01/27 08:27:17;;;;;;;6.22;2.17;;;;;;;-143.48;67.28;118439.88;5077012;28;20479;-64
2023/01/27 08:29:43;;;;;;;8.65;2.60;;;;;;;-143.48;67.21;118439.88;5095708;28;20031;-63
2023/01/27 08:32:09;;;;;;;9.15;2.63;;;;;;;-143.48;65.86;118439.88;5097222;28;20020;-62
2023/01/27 08:34:36;;;;;;;9.85;2.88;;;;;;;-143.48;66.12;118439.88;5097155;28;20020;-63
2023/01/27 08:37:01;;;;;;;7.68;2.58;;;;;;;-143.48;66.04;118439.88;5076078;28;20093;-64
2023/01/27 08:39:26;;;;;;;10.13;3.42;;;;;;;-143.48;66.54;118439.88;5093053;28;20048;-65
2023/01/27 08:41:52;;;;;;;10.02;3.42;;;;;;;-143.48;67.50;118439.88;5103229;28;20028;-64
2023/01/27 08:44:18;;;;;;;12.85;3.53;;;;;;;-143.48;66.83;118439.88;5094554;28;20107;-64
2023/01/27 08:46:43;;;;;;;12.88;3.90;;;;;;;-143.48;67.17;118439.88;5076535;28;20070;-63
2023/01/27 08:49:08;;;;;;;13.75;4.45;;;;;;;-143.48;67.50;118439.88;5094539;28;20527;-63
2023/01/27 08:51:34;;;;;;;10.98;3.47;;;;;;;-143.48;67.27;118439.88;5075822;28;20027;-65
2023/01/27 08:53:59;;;;;;;6.88;2.20;;;;;;;-143.48;66.58;118439.88;5093917;28;20027;-63
2023/01/27 08:56:24;;;;;;;4.45;1.95;;;;;;;-143.48;66.41;118439.88;5093059;28;20367;-64
2023/01/27 08:58:51;;;;;;;5.30;2.00;;;;;;;-143.48;65.16;118439.88;5092581;28;20024;-64
2023/01/27 09:01:17;;;;;;;4.70;1.83;;;;;;;-143.48;64.97;118439.88;5093357;28;20491;-64
2023/01/27 09:03:42;;;;;;;6.68;1.98;;;;;;;-143.48;63.77;118439.88;5074028;28;20016;-65
2023/01/27 09:06:10;;;;;;;6.57;2.35;;;;;;;-143.48;64.79;118439.88;5092039;28;20081;-66
2023/01/27 09:08:35;;;;;;;3.60;1.55;;;;;;;-143.48;65.57;118439.88;5073571;28;20035;-65
2023/01/27 09:11:07;;;;;;;6.63;1.98;;;;;;;-143.48;66.23;118439.88;5092253;28;20111;-66
2023/01/27 09:13:32;;;;;;;9.98;2.00;;;;;;;-143.48;66.00;118439.88;5092248;28;20467;-67
2023/01/27 09:15:59;;;;;;;4.88;1.90;;;;;;;-143.48;66.20;118439.88;5093389;28;20024;-65
2023/01/27 09:18:25;;;;;;;4.45;2.08;;;;;;;-143.48;65.75;118439.88;5076159;28;20031;-67
2023/01/27 09:20:50;;;;;;;3.50;1.70;;;;;;;-143.48;65.50;118439.88;5092774;28;20391;-66
2023/01/27 09:23:15;;;;;;;6.70;1.90;;;;;;;-143.48;65.99;118439.88;5075786;28;20382;-64
2023/01/27 09:25:41;;;;;;;4.30;1.80;;;;;;;-143.48;64.79;118439.88;5076282;28;20053;-63
2023/01/27 09:28:15;;;;;;;8.02;2.10;;;;;;;-143.48;65.02;118439.88;5076166;28;20028;-65
2023/01/27 09:30:41;;;;;;;4.53;1.83;;;;;;;-143.48;65.21;118439.88;5093632;28;20020;-65
2023/01/27 09:33:07;;;;;;;4.35;1.83;;;;;;;-143.48;66.16;118439.88;5094238;28;20474;-63
2023/01/27 09:35:40;;;;;;;6.53;1.70;;;;;;;-143.48;66.09;118439.88;5093852;28;20032;-64
2023/01/27 09:38:06;;;;;;;3.70;2.10;;;;;;;-143.48;66.57;118439.88;5094098;28;20378;-64
2023/01/27 09:40:49;;;;;;;4.10;1.63;;;;;;;-143.48;67.03;118439.88;5075449;28;20777;-65
2023/01/27 09:43:21;;;;;;;7.70;2.03;;;;;;;-143.48;66.69;118439.88;5076041;28;20028;-65
2023/01/27 09:46:10;;;;;;;4.97;1.90;;;;;;;-143.48;67.05;118439.88;5075506;28;20114;-65
2023/01/27 09:48:54;;;;;;;4.00;1.90;;;;;;;-143.48;67.28;118439.88;5094170;28;20016;-65
2023/01/27 09:51:44;;;;;;;4.43;1.80;;;;;;;-143.48;67.58;118439.88;5097614;28;20024;-65
2023/01/27 09:54:31;;;;;;;3.83;1.83;;;;;;;-143.48;66.33;118439.88;5096999;28;20027;-64
2023/01/27 09:57:16;;;;;;;3.40;1.77;;;;;;;-143.48;59.26;118439.88;5097660;28;20031;-65
2023/01/27 09:59:45;;;;;;;16.52;2.00;;;;;;;-143.48;48.05;118439.88;5097146;28;20024;-65
2023/01/27 10:02:39;;;;;;;3.20;1.58;;;;;;;-143.48;43.17;118439.88;5097211;28;20023;-65
2023/01/27 10:05:46;;;;;;;3.08;1.38;;;;;;;-143.48;43.16;118439.88;5096902;28;20089;-65
2023/01/27 10:08:11;;;;;;;3.30;1.30;;;;;;;-143.48;39.69;118439.88;5098428;28;20028;-65
2023/01/27 10:11:12;;;;;;;3.60;1.40;;;;;;;-143.48;41.93;118439.88;5079937;28;20390;-65
2023/01/27 10:14:01;;;;;;;5.35;1.30;;;;;;;-143.48;40.02;118439.88;5064167;28;20320;-66
2023/01/27 10:16:41;;;;;;;3.97;1.27;;;;;;;-143.48;40.40;118439.88;5096098;28;20466;-66
2023/01/27 10:19:26;;;;;;;4.43;1.25;;;;;;;-143.48;41.56;118439.88;5095413;28;20031;-65
2023/01/27 10:22:39;;;;;;;6.22;1.58;;;;;;;-143.48;41.49;118439.88;5096461;28;20359;-65
2023/01/27 10:25:30;;;;;;;3.33;1.35;;;;;;;-143.48;39.25;118439.88;5014299;28;20096;-66
2023/01/27 10:27:57;;;;;;;5.05;1.33;;;;;;;-143.48;45.21;118439.88;5012719;28;20071;-66
2023/01/27 10:30:35;;;;;;;4.85;1.55;;;;;;;-143.48;54.58;118439.88;5053267;28;20063;-66
2023/01/27 10:33:17;;;;;;;4.10;1.38;;;;;;;-143.48;54.63;118439.88;5076813;28;20074;-66
2023/01/27 10:36:02;;;;;;;3.58;1.55;;;;;;;-143.48;54.75;118439.88;5095242;28;20036;-66
2023/01/27 10:38:54;;;;;;;2.67;1.58;;;;;;;-143.48;58.50;118439.88;5094169;28;20016;-65
2023/01/27 10:41:30;;;;;;;5.47;2.15;;;;;;;-143.48;61.77;118439.88;5093275;28;20048;-65
2023/01/27 10:44:20;;;;;;;4.38;2.17;;;;;;;-143.48;62.16;118439.88;5094728;28;20049;-66
2023/01/27 10:46:48;;;;;;;4.30;1.70;;;;;;;-143.48;64.08;118439.88;5094704;28;20028;-66
2023/01/27 10:49:42;;;;;;;4.45;2.10;;;;;;;-143.48;64.60;118439.88;5076821;28;20028;-65
2023/01/27 10:52:17;;;;;;;3.22;2.20;;;;;;;-143.48;65.24;118439.88;5094928;28;20069;-65
2023/01/27 10:55:06;;;;;;;6.65;2.15;;;;;;;-143.48;66.11;118439.88;5076657;28;20054;-65
2023/01/27 10:57:33;;;;;;;5.32;2.17;;;;;;;-143.48;65.98;118439.88;5095641;28;20461;-64
2023/01/27 11:00:11;;;;;;;6.35;2.30;;;;;;;-143.48;67.55;118439.88;5095386;28;20028;-66
2023/01/27 11:02:55;;;;;;;3.67;2.38;;;;;;;-143.48;68.19;118439.88;5095748;28;20055;-64
2023/01/27 11:05:27;;;;;;;7.70;2.47;;;;;;;-143.48;68.05;118439.88;5095855;28;20031;-64
2023/01/27 11:07:59;;;;;;;3.42;2.08;;;;;;;-143.48;69.04;118439.88;5095755;28;20532;-64
2023/01/27 11:10:34;;;;;;;4.97;2.40;;;;;;;-143.48;69.33;118439.88;5095858;28;20027;-64
2023/01/27 11:13:03;;;;;;;7.50;2.72;;;;;;;-143.48;69.27;118439.88;5095885;28;20460;-62
2023/01/27 11:15:32;;;;;;;5.95;2.70;;;;;;;-143.48;68.79;118439.88;5095542;28;20102;-64
2023/01/27 11:18:12;;;;;;;4.45;2.70;;;;;;;-143.48;67.56;118439.88;5095453;28;20028;-64
2023/01/27 11:20:41;;;;;;;6.75;2.90;;;;;;;-143.48;67.32;118439.88;5095417;28;20049;-64
2023/01/27 11:23:09;;;;;;;5.22;2.47;;;;;;;-143.48;67.97;118439.88;5095632;28;20027;-63
2023/01/27 11:25:40;;;;;;;5.22;2.58;;;;;;;-143.48;67.50;118439.88;5076861;28;20568;-63
2023/01/27 11:28:19;;;;;;;6.28;2.72;;;;;;;-143.48;67.72;118439.88;5095366;28;20407;-64
2023/01/27 11:31:03;;;;;;;6.18;2.42;;;;;;;-143.48;67.51;118439.88;5095248;28;20056;-65
2023/01/27 11:33:31;;;;;;;5.28;2.70;;;;;;;-143.48;67.45;118439.88;5095062;28;20577;-66
2023/01/27 11:35:56;;;;;;;4.75;2.67;;;;;;;-143.48;67.51;118439.88;5076962;28;20048;-65
2023/01/27 11:38:22;;;;;;;6.03;2.67;;;;;;;-143.48;67.27;118439.88;5095171;28;20055;-65
2023/01/27 11:40:50;;;;;;;4.68;2.15;;;;;;;-143.48;69.06;118439.88;5094972;28;20055;-65
2023/01/27 11:43:22;;;;;;;5.40;2.88;;;;;;;-143.48;69.34;118439.88;5095055;28;20324;-65
2023/01/27 11:45:48;;;;;;;5.15;2.72;;;;;;;-143.48;69.89;118439.88;5095204;28;20024;-65